Flight Track Log - Related Links

Times and Time Zones

All times are in EDT time to prevent confusion due to time zone crossing. See the KAP444 flight status page for this flight to view local times or setup timezone preferences in your user account.

Time Position Orientation Groundspeed Altitude Reporting Facility
EDT Latitude Longitude Course Direction KTS MPH feet Rate Location/Type
Sat 04:19:00 PM 42.3500 -70.9667 90° East 103 119 1,100  Level KA90
Sat 04:20:06 PM 42.3500 -70.9167 90° East 117 135 1,800 619 Climbing KA90
Sat 04:21:06 PM 42.3333 -70.8667 114° Southeast 133 153 2,400 571 Climbing KA90
Sat 04:22:12 PM 42.3000 -70.8333 144° Southeast 136 157 3,000 571 Climbing KA90
Sat 04:23:12 PM 42.2667 -70.8167 160° South 137 158 3,600 579 Climbing KA90
Sat 04:24:06 PM 42.2333 -70.7833 143° Southeast 144 166 4,100 626 Climbing KA90
Sat 04:25:07 PM 42.2000 -70.7667 160° South 145 167 4,800 689 Climbing KA90
Sat 04:27:00 PM 42.1369 -70.7189 116° Southeast  Level Estimated
Sat 04:34:00 PM 41.9023 -70.5420 114° Southeast  Level Estimated
Sat 04:35:00 PM 41.9135 -70.4926 73° East  Level FlightAware Approximate
Sat 04:36:00 PM 41.9247 -70.4433 73° East  Level FlightAware Approximate
Sat 04:37:00 PM 41.9359 -70.3939 73° East  Level FlightAware Approximate
Sat 04:38:00 PM 41.9470 -70.3444 73° East  Level FlightAware Approximate
Sat 04:39:00 PM 41.9582 -70.2950 73° East  Level FlightAware Approximate
Sat 04:40:00 PM 41.9209 -70.2825 180° South  Level Estimated
Sat 04:41:00 PM 41.8877 -70.2566 150° Southeast  Level FlightAware Approximate
Sat 04:42:00 PM 41.8545 -70.2307 150° Southeast  Level FlightAware Approximate
Sat 04:43:00 PM 41.8213 -70.2048 150° Southeast  Level FlightAware Approximate
Sat 04:44:00 PM 41.7880 -70.1789 150° Southeast  Level FlightAware Approximate
Sat 04:45:00 PM 41.7548 -70.1531 150° Southeast  Level FlightAware Approximate
Sat 04:46:00 PM 41.7215 -70.1273 150° Southeast  Level FlightAware Approximate
Sat 04:47:00 PM 41.6883 -70.1016 150° Southeast  Level FlightAware Approximate
Sat 04:48:00 PM 41.6550 -70.0759 150° Southeast  Level FlightAware Approximate
Sat 04:49:00 PM 41.6218 -70.0501 150° Southeast  Level FlightAware Approximate
Sat 04:50:00 PM 41.5885 -70.0245 150° Southeast  Level FlightAware Approximate
Sat 04:51:00 PM 41.5935 -70.0346 189° South  Level FlightAware Approximate
Sat 04:52:00 PM 41.5555 -70.0422 189° South  Level FlightAware Approximate
Sat 04:53:00 PM 41.5175 -70.0498 189° South  Level FlightAware Approximate
Sat 04:54:00 PM 41.4791 -70.0500 180° South  Level FlightAware Approximate
Sat 04:55:00 PM 41.4407 -70.0500 180° South  Level FlightAware Approximate
Sat 04:56:00 PM 41.4023 -70.0500 180° South  Level FlightAware Approximate
Sat 04:57:00 PM 41.3639 -70.0500 180° South  Level FlightAware Approximate
Sat 04:58:00 PM 41.3255 -70.0500 180° South  Level FlightAware Approximate
Sat 04:59:00 PM 41.2871 -70.0500 180° South  Level FlightAware Approximate
Sat 05:00:00 PM 41.2500 -70.0500 180° South  Level FlightAware Approximate
Sat 05:01:00 PM 41.2531 -70.0603 180° South  Level Estimated
Sat 05:02:00 PM 41.2531 -70.0603 180° South  Level Estimated
Sat 05:03:00 PM 41.2531 -70.0603 180° South  Level Estimated
Sat 05:04:00 PM 41.2531 -70.0603 180° South  Level Estimated
Sat 05:05:00 PM 41.2531 -70.0603 180° South  Level Estimated
Sat 05:06:00 PM 41.2531 -70.0603 180° South  Level Estimated
Sat 05:07:00 PM 41.2531 -70.0603 180° South  Level Estimated
Sat 05:08:00 PM 41.2531 -70.0603 180° South  Level Estimated
Sat 05:09:00 PM 41.2531 -70.0603 180° South  Level Estimated
Sat 05:10:00 PM 41.2531 -70.0603 180° South  Level Estimated
Sat 05:11:00 PM 41.2531 -70.0603 180° South  Level Estimated
Sat 05:12:00 PM 41.2531 -70.0603 180° South  Level Estimated
Sat 05:13:00 PM 41.2531 -70.0603 180° South  Level Estimated
Sat 05:14:00 PM 41.2531 -70.0603 180° South  Level Estimated
Sat 05:15:00 PM 41.2531 -70.0603 180° South  Level Estimated

Login

Don't have an account? Register now (free) for customized features, flight alerts, and more!